Time;durP1;ratioP1;P1;durP2;ratioP2;P2;SDS_P1;SDS_P2;PMS_P1;PMS_P2;Temp;Humidity;BMP_temperature;BMP_pressure;BME280_temperature;BME280_humidity;BME280_pressure;Samples;Min_cycle;Max_cycle;Signal;HPM_P1;HPM_P2
2022/10/04 00:01:43;;;;;;;4.55;2.00;;;12.60;99.90;;;;;;6232982;22;20352;-92
2022/10/04 00:04:51;;;;;;;5.85;2.40;;;12.60;99.90;;;;;;6225374;22;20078;-93
2022/10/04 00:07:28;;;;;;;6.68;2.28;;;12.50;99.90;;;;;;6222798;22;20035;-91
2022/10/04 00:10:00;;;;;;;5.50;2.50;;;12.50;99.90;;;;;;6224613;22;20020;-90
2022/10/04 00:12:35;;;;;;;5.95;2.63;;;12.50;99.90;;;;;;6225465;22;20024;-91
2022/10/04 00:15:06;;;;;;;5.72;2.70;;;12.50;99.90;;;;;;6225745;22;20150;-90
2022/10/04 00:17:35;;;;;;;7.47;2.60;;;12.50;99.90;;;;;;6225659;22;20043;-90
2022/10/04 00:20:22;;;;;;;5.15;2.20;;;12.50;99.90;;;;;;6225752;22;20012;-91
2022/10/04 00:23:20;;;;;;;5.75;2.30;;;12.50;99.90;;;;;;6225483;22;20015;-90
2022/10/04 00:25:45;;;;;;;3.88;1.92;;;12.50;99.90;;;;;;6174709;22;20069;-91
2022/10/04 00:28:19;;;;;;;6.23;2.40;;;12.50;99.90;;;;;;6200399;22;20016;-91
2022/10/04 00:31:05;;;;;;;4.15;1.70;;;12.50;99.90;;;;;;6225552;22;20016;-91
2022/10/04 00:33:38;;;;;;;4.20;1.95;;;12.50;99.90;;;;;;6248660;22;20004;-92
2022/10/04 00:36:25;;;;;;;6.28;2.10;;;12.50;99.90;;;;;;6250077;22;20073;-91
2022/10/04 00:39:03;;;;;;;3.90;1.98;;;12.50;99.90;;;;;;6251241;22;20027;-91
2022/10/04 00:41:48;;;;;;;5.50;2.13;;;12.50;99.90;;;;;;6225527;22;20469;-91
2022/10/04 00:44:27;;;;;;;4.60;2.55;;;12.50;99.90;;;;;;6225155;22;20022;-91
2022/10/04 00:46:57;;;;;;;5.75;2.30;;;12.50;99.90;;;;;;6225585;22;20016;-91
2022/10/04 00:49:29;;;;;;;5.45;2.30;;;12.50;99.90;;;;;;6225259;22;20345;-91
2022/10/04 00:52:27;;;;;;;7.25;2.83;;;12.50;99.90;;;;;;6249064;22;20011;-91
2022/10/04 00:54:59;;;;;;;5.47;2.42;;;12.50;99.90;;;;;;6225199;22;20093;-90
2022/10/04 00:57:37;;;;;;;7.68;2.38;;;12.60;99.90;;;;;;6225260;22;20015;-90
2022/10/04 01:00:16;;;;;;;6.55;2.55;;;12.60;99.90;;;;;;6225107;22;20027;-91
2022/10/04 01:02:43;;;;;;;5.10;2.20;;;12.60;99.90;;;;;;6225123;22;20019;-90
2022/10/04 01:05:19;;;;;;;5.70;2.45;;;12.60;99.90;;;;;;6225067;22;20016;-91
2022/10/04 01:07:52;;;;;;;6.38;3.15;;;12.60;99.90;;;;;;6224683;22;20094;-92
2022/10/04 01:13:17;;;;;;;5.82;2.92;;;12.60;99.90;;;;;;6276821;22;20098;-89
2022/10/04 01:16:15;;;;;;;6.68;3.30;;;12.60;99.90;;;;;;6224778;22;20039;-89
2022/10/04 01:18:41;;;;;;;8.90;4.15;;;12.60;99.90;;;;;;6224902;22;20047;-89
2022/10/04 01:21:19;;;;;;;5.95;2.90;;;12.60;99.90;;;;;;6223614;22;20046;-90
2022/10/04 01:23:58;;;;;;;5.32;2.85;;;12.70;99.90;;;;;;6224100;22;20075;-89
2022/10/04 01:26:32;;;;;;;6.78;2.85;;;12.60;99.90;;;;;;6224200;22;20020;-90
2022/10/04 01:29:08;;;;;;;6.72;2.95;;;12.60;99.90;;;;;;6225074;22;20210;-89
2022/10/04 01:31:38;;;;;;;5.95;3.28;;;12.60;99.90;;;;;;6223083;22;20015;-89
2022/10/04 01:34:05;;;;;;;6.40;3.00;;;12.60;99.90;;;;;;6223204;22;20071;-90
2022/10/04 01:36:32;;;;;;;5.63;2.75;;;12.60;99.90;;;;;;6223442;22;20055;-90
2022/10/04 01:38:59;;;;;;;6.10;2.92;;;12.60;99.90;;;;;;6225197;22;20018;-90
2022/10/04 01:42:21;;;;;;;5.28;2.63;;;12.60;99.90;;;;;;6224558;22;20011;-89
2022/10/04 01:45:09;;;;;;;5.50;2.83;;;12.70;99.90;;;;;;6104837;23;20117;-90
2022/10/04 01:47:47;;;;;;;7.03;3.08;;;12.70;99.90;;;;;;6224447;22;20071;-90
2022/10/04 01:50:37;;;;;;;;;;;;;;;;;;;;;
2022/10/04 01:53:30;;;;;;;7.65;2.97;;;12.70;99.90;;;;;;6250356;22;20058;-89
2022/10/04 01:56:07;;;;;;;7.20;2.72;;;12.70;99.90;;;;;;6224750;22;20023;-90
2022/10/04 01:58:41;;;;;;;6.20;2.83;;;12.70;99.90;;;;;;6224092;22;20023;-90
2022/10/04 02:01:21;;;;;;;7.05;2.90;;;12.70;99.90;;;;;;6225047;22;20051;-89
2022/10/04 02:04:01;;;;;;;8.85;2.92;;;12.70;99.90;;;;;;6223763;22;20511;-89
2022/10/04 02:06:28;;;;;;;5.85;3.03;;;12.70;99.90;;;;;;6224590;22;20035;-90
2022/10/04 02:08:57;;;;;;;8.20;2.85;;;12.70;99.90;;;;;;6226636;22;20027;-91
2022/10/04 02:11:26;;;;;;;7.28;3.40;;;12.70;99.90;;;;;;6227029;22;20011;-90
2022/10/04 02:14:00;;;;;;;8.52;3.05;;;12.70;99.90;;;;;;6225688;22;20051;-90
2022/10/04 02:16:35;;;;;;;8.85;3.67;;;12.70;99.90;;;;;;6202575;22;20023;-90
2022/10/04 02:19:02;;;;;;;6.95;3.35;;;12.70;99.90;;;;;;6226753;22;20019;-89
2022/10/04 02:21:28;;;;;;;;;;;12.70;99.90;;;;;;6227134;22;20047;-90
2022/10/04 02:23:54;;;;;;;5.88;2.72;;;12.70;99.90;;;;;;6226389;22;19923;-90
2022/10/04 02:26:20;;;;;;;8.55;3.65;;;12.70;99.90;;;;;;6226640;22;20016;-90
2022/10/04 02:28:47;;;;;;;5.93;3.17;;;12.70;99.90;;;;;;6201039;22;20012;-89
2022/10/04 02:33:59;;;;;;;8.88;2.88;;;12.70;99.90;;;;;;6251414;22;20019;-89
2022/10/04 02:36:27;;;;;;;6.25;2.95;;;12.70;99.90;;;;;;6226036;22;20019;-89
2022/10/04 02:39:12;;;;;;;5.88;2.75;;;12.70;99.90;;;;;;6248230;22;19999;-92
2022/10/04 02:41:44;;;;;;;6.85;2.83;;;12.70;99.90;;;;;;6247476;22;20071;-89
2022/10/04 02:44:36;;;;;;;5.53;2.60;;;12.60;99.90;;;;;;6227261;22;20016;-90
2022/10/04 02:47:21;;;;;;;10.02;3.20;;;12.70;99.90;;;;;;6224838;22;20045;-90
2022/10/04 02:49:57;;;;;;;7.10;2.67;;;12.70;99.90;;;;;;6225779;22;20030;-90
2022/10/04 02:53:15;;;;;;;6.85;3.10;;;12.70;99.90;;;;;;6226350;22;20015;-90
2022/10/04 02:55:42;;;;;;;5.88;2.67;;;12.60;99.90;;;;;;6167935;22;20018;-90
2022/10/04 02:58:13;;;;;;;7.65;2.80;;;12.60;99.90;;;;;;6225868;22;20357;-90
2022/10/04 03:00:53;;;;;;;8.55;2.90;;;12.60;99.90;;;;;;6226174;22;20121;-89
2022/10/04 03:03:28;;;;;;;7.18;2.97;;;12.60;99.90;;;;;;6224970;22;20448;-91
2022/10/04 03:06:05;;;;;;;5.30;2.75;;;12.60;99.90;;;;;;6224755;22;20015;-90
2022/10/04 03:08:44;;;;;;;7.78;3.08;;;12.50;99.90;;;;;;6225099;22;20016;-90
2022/10/04 03:11:12;;;;;;;4.90;2.72;;;12.60;99.90;;;;;;6225741;22;20411;-90
2022/10/04 03:13:42;;;;;;;6.40;2.53;;;12.60;99.90;;;;;;6225157;22;20019;-90
2022/10/04 03:16:08;;;;;;;6.53;2.80;;;12.60;99.90;;;;;;6232854;22;20012;-89
2022/10/04 03:18:35;;;;;;;6.38;3.08;;;12.60;99.90;;;;;;6225808;22;20453;-90
2022/10/04 03:21:05;;;;;;;6.53;2.88;;;12.60;99.90;;;;;;6250119;22;20480;-90
2022/10/04 03:23:34;;;;;;;7.82;3.20;;;12.60;99.90;;;;;;6224955;22;20023;-89
2022/10/04 03:26:12;;;;;;;6.18;3.35;;;12.50;99.90;;;;;;6225950;22;20099;-89
2022/10/04 03:28:48;;;;;;;6.78;3.97;;;12.50;99.90;;;;;;6225901;22;20099;-90
2022/10/04 03:31:15;;;;;;;7.13;3.15;;;12.50;99.90;;;;;;6226030;22;20034;-91
2022/10/04 03:34:03;;;;;;;7.40;3.25;;;12.50;99.90;;;;;;6225533;22;20023;-89
2022/10/04 03:36:30;;;;;;;6.22;3.60;;;12.50;99.90;;;;;;6204713;22;20016;-90
2022/10/04 03:38:57;;;;;;;6.63;3.38;;;12.50;99.90;;;;;;6225231;22;20070;-90
2022/10/04 03:41:24;;;;;;;9.88;3.53;;;12.40;99.90;;;;;;6225942;22;20051;-89
2022/10/04 03:43:52;;;;;;;6.78;3.35;;;12.40;99.90;;;;;;6224883;22;20022;-89
2022/10/04 03:46:22;;;;;;;6.25;2.90;;;12.40;99.90;;;;;;6225673;22;20016;-90
2022/10/04 03:48:50;;;;;;;6.63;3.03;;;12.40;99.90;;;;;;6225542;22;20075;-88
2022/10/04 03:51:22;;;;;;;9.18;3.53;;;12.40;99.90;;;;;;6250969;22;20232;-88
2022/10/04 03:54:18;;;;;;;7.00;3.13;;;12.40;99.90;;;;;;6225654;22;20067;-89
2022/10/04 03:56:46;;;;;;;8.38;3.47;;;12.40;99.90;;;;;;6203517;22;20020;-90
2022/10/04 03:59:16;;;;;;;8.48;3.55;;;12.40;99.90;;;;;;6200722;22;20052;-91
2022/10/04 04:02:26;;;;;;;9.20;3.47;;;12.40;99.90;;;;;;6223877;22;20011;-91
2022/10/04 04:05:15;;;;;;;6.43;2.80;;;12.40;99.90;;;;;;6222933;22;20036;-91
2022/10/04 04:07:59;;;;;;;8.02;3.35;;;12.40;99.90;;;;;;6223680;22;20012;-90
2022/10/04 04:10:37;;;;;;;7.70;2.85;;;12.40;99.90;;;;;;6225113;22;20098;-91
2022/10/04 04:13:21;;;;;;;8.68;3.30;;;12.40;99.90;;;;;;6225265;22;20046;-90
2022/10/04 04:15:47;;;;;;;6.28;3.10;;;12.40;99.90;;;;;;6225500;22;20066;-90
2022/10/04 04:18:24;;;;;;;6.05;2.92;;;12.40;99.90;;;;;;6200865;22;20094;-90
2022/10/04 04:21:06;;;;;;;5.13;2.55;;;12.40;99.90;;;;;;6225620;22;20015;-89
2022/10/04 04:23:42;;;;;;;7.60;3.10;;;12.40;99.90;;;;;;6225334;22;20019;-89
2022/10/04 04:26:16;;;;;;;7.22;2.97;;;12.40;99.90;;;;;;6250766;22;20019;-91
2022/10/04 04:28:49;;;;;;;7.25;2.92;;;12.40;99.90;;;;;;6225356;22;20020;-90
2022/10/04 04:31:25;;;;;;;7.18;2.90;;;12.40;99.90;;;;;;6225070;22;20018;-90
2022/10/04 04:34:01;;;;;;;6.07;2.97;;;12.40;99.90;;;;;;6225466;22;20019;-91
2022/10/04 04:37:09;;;;;;;6.47;3.08;;;12.40;99.90;;;;;;6224973;22;20334;-93
2022/10/04 04:40:25;;;;;;;6.45;3.40;;;12.30;99.90;;;;;;6226968;22;20019;-92
2022/10/04 04:42:51;;;;;;;7.68;3.60;;;12.30;99.90;;;;;;6246130;22;20008;-90
2022/10/04 04:45:19;;;;;;;;;;;12.30;99.90;;;;;;6243291;22;20488;-90
2022/10/04 04:47:49;;;;;;;7.60;3.65;;;12.30;99.90;;;;;;6225486;22;19997;-91
2022/10/04 04:50:49;;;;;;;10.40;3.50;;;12.30;99.90;;;;;;6225252;22;20011;-92
2022/10/04 04:53:19;;;;;;;7.72;3.45;;;12.30;99.90;;;;;;6225930;22;20023;-92
2022/10/04 04:55:52;;;;;;;9.02;3.15;;;12.20;99.90;;;;;;6225339;22;20020;-92
2022/10/04 04:58:23;;;;;;;7.70;3.33;;;12.20;99.90;;;;;;6225342;22;20015;-92
2022/10/04 05:01:17;;;;;;;8.70;3.88;;;12.20;99.90;;;;;;6225636;22;20015;-90
2022/10/04 05:03:43;;;;;;;6.70;3.17;;;12.20;99.90;;;;;;6224636;22;20078;-92
2022/10/04 05:06:26;;;;;;;6.60;3.10;;;12.20;99.90;;;;;;6225007;22;20015;-87
2022/10/04 05:08:51;;;;;;;7.70;3.90;;;12.20;99.90;;;;;;6224041;22;20285;-88
2022/10/04 05:11:20;;;;;;;7.03;3.57;;;12.10;99.90;;;;;;6224093;22;20016;-89
2022/10/04 05:13:58;;;;;;;7.88;3.50;;;12.10;99.90;;;;;;6224057;22;20016;-89
2022/10/04 05:16:50;;;;;;;8.88;3.83;;;12.10;99.90;;;;;;6240767;22;20044;-89
2022/10/04 05:19:24;;;;;;;8.45;3.92;;;12.00;99.90;;;;;;6238631;22;20027;-89
2022/10/04 05:21:56;;;;;;;6.63;3.60;;;12.00;99.90;;;;;;6224320;22;20015;-89
2022/10/04 05:24:26;;;;;;;9.73;3.53;;;12.00;99.90;;;;;;6224632;22;20118;-91
2022/10/04 05:26:55;;;;;;;10.48;4.22;;;12.00;99.90;;;;;;6225097;22;20023;-90
2022/10/04 05:32:19;;;;;;;6.68;3.70;;;11.90;99.90;;;;;;6280952;22;20023;-96
2022/10/04 05:34:49;;;;;;;8.77;4.05;;;11.90;99.90;;;;;;6228842;22;20024;-96
2022/10/04 05:37:41;;;;;;;8.48;3.63;;;11.90;99.90;;;;;;6225526;22;20012;-94
2022/10/04 05:40:28;;;;;;;11.40;4.43;;;11.90;99.90;;;;;;6223261;22;20055;-96
2022/10/04 05:43:32;;;;;;;7.80;4.07;;;11.80;99.90;;;;;;6224858;22;20019;-96
2022/10/04 05:46:27;;;;;;;9.38;4.07;;;11.80;99.90;;;;;;6224704;22;20062;-94
2022/10/04 05:48:57;;;;;;;7.53;3.78;;;11.80;99.90;;;;;;6223452;22;20016;-95
2022/10/04 05:51:27;;;;;;;7.40;3.28;;;11.70;99.90;;;;;;6223875;22;20024;-96
2022/10/04 06:16:56;;;;;;;;;;;;;;;;;;;;;
2022/10/04 06:23:51;;;;;;;7.60;4.43;;;11.80;99.90;;;;;;6230695;22;20019;-95
2022/10/04 06:27:34;;;;;;;8.18;4.47;;;11.80;99.90;;;;;;6176789;22;20020;-92
2022/10/04 06:30:04;;;;;;;6.65;4.00;;;11.80;99.90;;;;;;6200146;22;20035;-95
2022/10/04 07:03:06;;;;;;;11.73;4.05;;;11.90;99.90;;;;;;6244731;22;20020;-91
2022/10/04 07:05:55;;;;;;;10.23;4.18;;;11.90;99.90;;;;;;6199972;23;20042;-95
2022/10/04 07:08:40;;;;;;;8.25;4.50;;;12.00;99.90;;;;;;6199201;23;20145;-96
2022/10/04 07:14:32;;;;;;;8.50;4.68;;;12.10;99.90;;;;;;6225378;23;20039;-95
2022/10/04 07:17:45;;;;;;;;;;;;;;;;;;;;;
2022/10/04 07:20:25;;;;;;;7.88;4.50;;;12.30;99.90;;;;;;6219724;23;20008;-92
2022/10/04 07:23:09;;;;;;;9.77;4.38;;;12.30;99.90;;;;;;6222712;23;20003;-94
2022/10/04 07:26:12;;;;;;;10.70;4.80;;;12.40;99.90;;;;;;6196228;23;20027;-93
2022/10/04 07:32:25;;;;;;;;;;;12.40;99.90;;;;;;6081009;23;20038;-95
2022/10/04 07:47:48;;;;;;;10.70;5.03;;;12.60;99.90;;;;;;6266450;22;20020;-95
2022/10/04 07:50:35;;;;;;;9.65;4.65;;;12.70;99.90;;;;;;6226083;22;20023;-94
2022/10/04 07:53:29;;;;;;;9.25;4.75;;;12.80;99.90;;;;;;6226208;22;20070;-95
2022/10/04 07:56:04;;;;;;;9.95;4.70;;;12.80;99.90;;;;;;6228136;22;20023;-94
2022/10/04 07:59:09;;;;;;;9.60;4.55;;;12.90;99.90;;;;;;6231507;22;20026;-94
2022/10/04 08:02:02;;;;;;;7.65;4.32;;;13.00;99.90;;;;;;6155864;22;20106;-95
2022/10/04 08:09:56;;;;;;;8.60;4.47;;;13.00;99.90;;;;;;6272849;22;20020;-93
2022/10/04 08:12:47;;;;;;;7.93;4.35;;;13.00;99.90;;;;;;6196175;23;20430;-93
2022/10/04 08:46:35;;;;;;;7.22;4.30;;;13.10;99.90;;;;;;6283460;22;20019;-95
2022/10/04 08:49:58;;;;;;;11.18;4.72;;;13.10;99.90;;;;;;6255718;22;20034;-95
2022/10/04 08:53:04;;;;;;;7.63;4.70;;;13.20;99.90;;;;;;6173757;22;20098;-95
2022/10/04 08:55:52;;;;;;;9.15;4.53;;;13.30;99.90;;;;;;6255795;22;20021;-92
2022/10/04 08:58:24;;;;;;;11.48;5.40;;;13.40;99.90;;;;;;6255986;22;20152;-93
2022/10/04 09:01:14;;;;;;;9.30;4.88;;;13.40;99.90;;;;;;6255401;22;20499;-93
2022/10/04 09:04:02;;;;;;;11.38;5.57;;;13.50;99.90;;;;;;6255716;22;20321;-94
2022/10/04 09:06:56;;;;;;;8.15;4.90;;;13.50;99.90;;;;;;6256199;22;20058;-95
2022/10/04 09:10:12;;;;;;;7.15;4.10;;;13.50;99.90;;;;;;6282545;22;20090;-94
2022/10/04 09:13:16;;;;;;;7.57;4.32;;;13.60;99.90;;;;;;6256302;22;20578;-94
2022/10/04 09:16:02;;;;;;;7.60;4.10;;;13.70;99.90;;;;;;6124406;22;20014;-95
2022/10/04 09:18:46;;;;;;;8.55;4.32;;;13.70;99.90;;;;;;6257592;22;20045;-95
2022/10/04 09:21:27;;;;;;;10.02;3.92;;;13.80;99.90;;;;;;6259441;22;20065;-93
2022/10/04 09:24:06;;;;;;;8.40;3.58;;;13.80;99.90;;;;;;6275670;22;20010;-88
2022/10/04 09:27:05;;;;;;;7.05;3.30;;;13.90;99.90;;;;;;6282224;22;19999;-89
2022/10/04 09:30:02;;;;;;;8.85;3.13;;;13.90;99.90;;;;;;6258547;22;20058;-94
2022/10/04 09:33:33;;;;;;;7.90;3.33;;;14.00;99.90;;;;;;6259583;22;20016;-93
2022/10/04 09:36:31;;;;;;;6.03;3.10;;;14.00;99.90;;;;;;6115669;23;20018;-92
2022/10/04 09:39:15;;;;;;;6.43;2.72;;;14.10;99.90;;;;;;6114327;23;20017;-96
2022/10/04 09:41:57;;;;;;;7.50;3.20;;;14.20;99.90;;;;;;6262674;22;20019;-96
2022/10/04 09:45:06;;;;;;;6.60;3.00;;;14.30;99.90;;;;;;6259830;22;20038;-96
2022/10/04 09:47:45;;;;;;;6.55;3.00;;;14.40;99.90;;;;;;6171835;22;20046;-96
2022/10/04 09:50:34;;;;;;;6.22;2.60;;;14.50;99.90;;;;;;6230088;22;20023;-95
2022/10/04 09:53:24;;;;;;;5.47;2.33;;;14.60;99.90;;;;;;6226906;22;20019;-90
2022/10/04 09:55:57;;;;;;;5.80;2.38;;;14.70;99.90;;;;;;6227598;22;20054;-95
2022/10/04 09:58:28;;;;;;;5.20;2.47;;;14.80;99.90;;;;;;6228458;22;20012;-94
2022/10/04 10:01:16;;;;;;;5.18;2.25;;;14.90;99.90;;;;;;6231574;22;20051;-94
2022/10/04 10:06:43;;;;;;;5.00;2.45;;;15.10;99.90;;;;;;6264010;22;20026;-94
2022/10/04 10:09:12;;;;;;;8.40;2.55;;;15.20;99.90;;;;;;6225104;22;20016;-94
2022/10/04 10:15:11;;;;;;;6.00;2.28;;;15.40;99.90;;;;;;6251897;22;20150;-94
2022/10/04 10:17:46;;;;;;;4.97;2.35;;;15.40;99.90;;;;;;6251801;22;20020;-96
2022/10/04 10:20:56;;;;;;;5.78;2.22;;;15.50;99.90;;;;;;6225271;22;20016;-94
2022/10/04 10:23:34;;;;;;;5.63;1.90;;;15.50;99.90;;;;;;6225618;22;20020;-95
2022/10/04 10:26:22;;;;;;;5.95;1.80;;;15.70;99.90;;;;;;6225058;22;20027;-92
2022/10/04 10:29:15;;;;;;;4.55;1.52;;;15.80;99.90;;;;;;6256287;22;20086;-96
2022/10/04 10:32:08;;;;;;;6.70;1.70;;;15.90;99.90;;;;;;6258150;22;20027;-93
2022/10/04 10:34:43;;;;;;;5.15;2.33;;;16.00;99.90;;;;;;6257809;22;20100;-95
2022/10/04 10:37:50;;;;;;;5.82;2.00;;;16.10;99.90;;;;;;6258308;22;20015;-93
2022/10/04 10:41:07;;;;;;;4.82;1.85;;;16.20;99.90;;;;;;6185218;22;20011;-91
2022/10/04 10:43:45;;;;;;;3.83;1.55;;;16.20;99.90;;;;;;6194518;22;20657;-93
2022/10/04 10:46:30;;;;;;;5.68;1.95;;;16.30;99.90;;;;;;6257953;22;20318;-91
2022/10/04 10:49:23;;;;;;;6.75;1.90;;;16.40;99.90;;;;;;6282605;22;20015;-94
2022/10/04 10:52:12;;;;;;;5.80;1.83;;;16.50;99.90;;;;;;6257452;22;20015;-95
2022/10/04 10:55:22;;;;;;;4.88;1.67;;;16.60;99.90;;;;;;6257532;22;20448;-94
2022/10/04 10:58:21;;;;;;;4.18;1.40;;;16.70;99.90;;;;;;6233370;22;20094;-92
2022/10/04 11:01:14;;;;;;;6.35;1.58;;;16.80;99.90;;;;;;6256399;22;20015;-92
2022/10/04 11:04:02;;;;;;;3.67;1.50;;;16.80;99.90;;;;;;6282092;22;20019;-91
2022/10/04 11:15:37;;;;;;;3.75;1.40;;;17.10;99.90;;;;;;6308138;22;20094;-87
2022/10/04 11:18:27;;;;;;;4.05;1.40;;;17.30;99.90;;;;;;6256570;22;20468;-91
2022/10/04 11:21:33;;;;;;;5.47;1.50;;;17.30;99.90;;;;;;6255435;22;20030;-88
2022/10/04 11:24:49;;;;;;;3.80;1.50;;;17.30;99.90;;;;;;6257435;22;20074;-91
2022/10/04 11:27:42;;;;;;;3.67;1.58;;;17.30;99.90;;;;;;6271061;22;20010;-88
2022/10/04 11:30:23;;;;;;;4.95;1.20;;;17.30;99.90;;;;;;6278057;22;20023;-93
2022/10/04 11:33:08;;;;;;;5.78;1.90;;;17.40;99.90;;;;;;6282030;22;20015;-95
2022/10/04 11:35:52;;;;;;;3.38;1.50;;;17.40;99.90;;;;;;6256768;22;20049;-93
2022/10/04 11:38:46;;;;;;;3.80;1.23;;;17.50;99.90;;;;;;6256648;22;20019;-93
2022/10/04 11:42:02;;;;;;;3.65;1.55;;;17.50;99.90;;;;;;6256759;22;20020;-93
2022/10/04 11:44:34;;;;;;;3.88;1.17;;;17.60;99.90;;;;;;6130711;23;20028;-94
2022/10/04 11:47:33;;;;;;;3.65;1.10;;;17.60;99.90;;;;;;6106025;23;20053;-94
2022/10/04 11:50:27;;;;;;;5.25;1.20;;;17.70;99.90;;;;;;6233560;22;20510;-92
2022/10/04 11:53:38;;;;;;;3.17;1.40;;;17.70;99.90;;;;;;6256920;22;20387;-92
2022/10/04 11:56:16;;;;;;;3.95;1.30;;;17.70;99.90;;;;;;6256228;22;20046;-91
2022/10/04 11:59:02;;;;;;;3.92;1.30;;;17.70;99.90;;;;;;6256498;22;20344;-92
2022/10/04 12:02:15;;;;;;;3.17;1.40;;;17.70;99.90;;;;;;6264529;22;20019;-89
2022/10/04 12:05:00;;;;;;;4.45;1.40;;;17.70;99.90;;;;;;6194143;22;20061;-93
2022/10/04 12:07:43;;;;;;;2.75;1.15;;;17.70;99.90;;;;;;6255336;22;20073;-92
2022/10/04 12:10:40;;;;;;;4.50;1.55;;;17.80;99.90;;;;;;6256535;22;20027;-94
2022/10/04 12:13:13;;;;;;;2.70;1.17;;;17.80;99.90;;;;;;6231711;22;20011;-91
2022/10/04 12:15:48;;;;;;;3.63;1.17;;;17.70;99.90;;;;;;6256131;22;20383;-90
2022/10/04 12:18:37;;;;;;;3.80;1.23;;;17.70;99.90;;;;;;6281999;22;20031;-90
2022/10/04 12:21:40;;;;;;;3.22;1.10;;;17.70;99.90;;;;;;6255868;22;20391;-90
2022/10/04 12:24:23;;;;;;;4.00;1.40;;;17.70;99.90;;;;;;6281499;22;20464;-90
2022/10/04 12:27:20;;;;;;;4.07;1.63;;;17.70;99.90;;;;;;6253833;22;20019;-88
2022/10/04 12:30:20;;;;;;;3.55;1.35;;;17.80;99.90;;;;;;6255376;22;20344;-91
2022/10/04 12:33:01;;;;;;;2.95;1.17;;;17.80;99.90;;;;;;6255789;22;20456;-92
2022/10/04 12:39:58;;;;;;;4.50;1.55;;;17.70;99.90;;;;;;6309029;22;20014;-89
2022/10/04 12:42:57;;;;;;;3.25;1.25;;;17.70;99.90;;;;;;6280866;22;20019;-92
2022/10/04 12:45:58;;;;;;;4.03;1.40;;;17.70;99.90;;;;;;6255692;22;20011;-88
2022/10/04 12:48:35;;;;;;;5.80;1.60;;;17.70;99.90;;;;;;6254970;22;20102;-93
2022/10/04 12:54:10;;;;;;;3.35;1.55;;;17.70;99.90;;;;;;6275186;22;20023;-92
2022/10/04 12:56:57;;;;;;;4.97;2.00;;;17.70;99.90;;;;;;6225428;22;20453;-93
2022/10/04 12:59:28;;;;;;;3.73;1.53;;;17.60;99.90;;;;;;6250307;22;20035;-95
2022/10/04 13:02:20;;;;;;;4.80;1.88;;;17.60;99.90;;;;;;6224332;22;20343;-96
2022/10/04 13:05:24;;;;;;;4.22;2.00;;;17.60;99.90;;;;;;6225696;22;20015;-96
2022/10/04 13:08:18;;;;;;;4.85;1.92;;;17.60;99.90;;;;;;6214671;22;20385;-92
2022/10/04 13:11:02;;;;;;;12.68;3.60;;;17.60;99.90;;;;;;6250730;22;20016;-95
2022/10/04 13:13:51;;;;;;;5.15;2.25;;;17.60;99.90;;;;;;6250806;22;20012;-94
2022/10/04 13:16:41;;;;;;;4.88;2.03;;;17.50;99.90;;;;;;6225582;22;20027;-93
2022/10/04 13:19:48;;;;;;;5.35;2.28;;;17.50;99.90;;;;;;6226664;22;20019;-90
2022/10/04 13:22:39;;;;;;;15.32;4.70;;;17.60;99.90;;;;;;6225234;22;20017;-95
2022/10/04 13:25:14;;;;;;;5.03;2.47;;;17.60;99.90;;;;;;6225607;22;20019;-96
2022/10/04 13:28:01;;;;;;;4.95;1.90;;;17.60;99.90;;;;;;6250508;22;20046;-93
2022/10/04 13:30:53;;;;;;;5.20;2.05;;;17.60;99.90;;;;;;6228342;22;20361;-94
2022/10/04 13:33:35;;;;;;;4.72;2.20;;;17.60;99.90;;;;;;6234150;22;20011;-96
2022/10/04 13:36:17;;;;;;;4.78;2.30;;;17.70;99.90;;;;;;6224484;22;20011;-94
2022/10/04 13:39:40;;;;;;;4.65;2.20;;;17.70;99.90;;;;;;6250046;22;20414;-93
2022/10/04 13:46:42;;;;;;;5.20;2.10;;;17.60;99.90;;;;;;6153821;23;20029;-92
2022/10/04 13:49:47;;;;;;;5.63;2.40;;;17.60;99.90;;;;;;6097221;23;20073;-92
2022/10/04 13:59:29;;;;;;;4.53;1.90;;;17.50;99.90;;;;;;6251187;22;20440;-88
2022/10/04 14:02:51;;;;;;;4.78;2.28;;;17.40;99.90;;;;;;6225624;22;20019;-93
2022/10/04 14:05:47;;;;;;;6.57;2.78;;;17.40;99.90;;;;;;6236292;22;20025;-87
2022/10/04 14:08:24;;;;;;;5.97;2.80;;;17.30;99.90;;;;;;6248532;22;20027;-92
2022/10/04 14:11:22;;;;;;;4.88;2.30;;;17.30;99.90;;;;;;6236281;22;20069;-94
2022/10/04 14:14:34;;;;;;;6.93;2.80;;;17.30;99.90;;;;;;6252785;22;20449;-96
2022/10/04 14:17:37;;;;;;;5.38;2.50;;;17.30;99.90;;;;;;6106060;23;20017;-90
2022/10/04 14:20:30;;;;;;;5.28;2.60;;;17.30;99.90;;;;;;6231427;22;20019;-92
2022/10/04 14:23:43;;;;;;;6.10;2.17;;;17.20;99.90;;;;;;6228558;22;20012;-96
2022/10/04 14:26:36;;;;;;;4.05;2.15;;;17.20;99.90;;;;;;6228194;22;20027;-96
2022/10/04 14:29:46;;;;;;;5.20;2.20;;;17.20;99.90;;;;;;6229004;22;20480;-96
2022/10/04 14:32:32;;;;;;;6.47;2.25;;;17.30;99.90;;;;;;6253457;22;20019;-96
2022/10/04 14:35:19;;;;;;;5.38;2.28;;;17.30;99.90;;;;;;6167297;22;20012;-93
2022/10/04 14:38:19;;;;;;;3.65;1.90;;;17.30;99.90;;;;;;6226948;22;20015;-89
2022/10/04 14:41:03;;;;;;;5.43;2.00;;;17.30;99.90;;;;;;6226927;22;20016;-94
2022/10/04 14:43:31;;;;;;;6.88;2.15;;;17.30;99.90;;;;;;6227086;22;20015;-93
2022/10/04 14:46:21;;;;;;;5.72;1.65;;;17.20;99.90;;;;;;6227016;22;20499;-93
2022/10/04 14:49:06;;;;;;;3.63;1.40;;;17.20;99.90;;;;;;6251624;22;20019;-92
2022/10/04 14:59:27;;;;;;;3.65;1.15;;;17.10;99.90;;;;;;6221869;23;20020;-96
2022/10/04 15:01:59;;;;;;;5.88;1.73;;;17.10;99.90;;;;;;6197031;23;20412;-92
2022/10/04 15:05:07;;;;;;;3.97;1.40;;;17.10;99.90;;;;;;6196829;23;20091;-94
2022/10/04 15:07:53;;;;;;;3.83;1.52;;;17.10;99.90;;;;;;6222783;23;20064;-96
2022/10/04 15:10:31;;;;;;;2.70;1.00;;;17.00;99.90;;;;;;6197894;23;20016;-95
2022/10/04 15:13:02;;;;;;;5.47;1.50;;;17.00;99.90;;;;;;6222138;23;20020;-95
2022/10/04 15:16:04;;;;;;;3.00;1.08;;;16.90;99.90;;;;;;6221100;23;20046;-94
2022/10/04 15:18:56;;;;;;;4.05;1.27;;;16.90;99.90;;;;;;6196514;23;20091;-96
2022/10/04 15:21:47;;;;;;;3.85;1.30;;;16.80;99.90;;;;;;6196525;23;20027;-95
2022/10/04 15:24:23;;;;;;;7.13;1.58;;;16.80;99.90;;;;;;6196487;23;20035;-95
2022/10/04 15:27:19;;;;;;;3.25;1.13;;;16.70;99.90;;;;;;6196507;23;20027;-95
2022/10/04 15:29:45;;;;;;;3.00;1.00;;;16.70;99.90;;;;;;6196646;23;20016;-95
2022/10/04 15:32:38;;;;;;;3.72;1.35;;;16.70;99.90;;;;;;6196102;23;20042;-94
2022/10/04 15:35:50;;;;;;;3.03;1.10;;;16.70;99.90;;;;;;6197000;23;20017;-94
2022/10/04 15:38:52;;;;;;;5.18;1.65;;;16.70;99.90;;;;;;6196982;23;20019;-96
2022/10/04 15:41:34;;;;;;;2.70;1.13;;;16.70;99.90;;;;;;6221562;23;20020;-93
2022/10/04 15:44:13;;;;;;;3.85;1.20;;;16.70;99.90;;;;;;6195973;23;20074;-93
2022/10/04 15:46:49;;;;;;;2.42;1.10;;;16.60;99.90;;;;;;6195975;23;20016;-94
2022/10/04 15:52:35;;;;;;;3.58;1.20;;;16.60;99.90;;;;;;6175161;23;20020;-93
2022/10/04 15:55:45;;;;;;;;;;;;;;;;;;;;;
2022/10/04 15:58:23;;;;;;;3.60;0.80;;;16.50;99.90;;;;;;6221405;23;20315;-96
2022/10/04 16:04:39;;;;;;;2.88;1.30;;;16.40;99.90;;;;;;6220092;23;20042;-93
2022/10/04 16:11:02;;;;;;;;;;;;;;;;;;;;;
2022/10/04 16:15:08;;;;;;;2.00;1.00;;;16.30;99.90;;;;;;6246036;23;20024;-91
2022/10/04 16:17:42;;;;;;;2.97;1.23;;;16.20;99.90;;;;;;6124854;23;20037;-93
2022/10/04 16:20:41;;;;;;;3.30;1.33;;;16.20;99.90;;;;;;6154716;23;20020;-92
2022/10/04 16:23:27;;;;;;;3.20;1.10;;;16.10;99.90;;;;;;6192487;23;20019;-94
2022/10/04 16:26:05;;;;;;;3.83;1.38;;;16.10;99.90;;;;;;6195530;23;20074;-93
2022/10/04 16:29:06;;;;;;;3.58;1.00;;;16.10;99.90;;;;;;6195463;23;20012;-93
2022/10/04 16:43:02;;;;;;;3.60;1.20;;;15.90;99.90;;;;;;6265447;22;20031;-89
2022/10/04 16:45:48;;;;;;;3.65;1.63;;;15.90;99.90;;;;;;6193007;22;20020;-95
2022/10/04 16:52:57;;;;;;;3.95;1.27;;;15.80;99.90;;;;;;6309223;22;20010;-93
2022/10/04 16:55:36;;;;;;;3.67;1.33;;;15.80;99.90;;;;;;6256169;22;20022;-92
2022/10/04 16:58:27;;;;;;;4.30;1.88;;;15.80;99.90;;;;;;6281582;22;20510;-93
2022/10/04 17:01:24;;;;;;;3.50;1.40;;;15.80;99.90;;;;;;6255923;22;20020;-95
2022/10/04 17:04:51;;;;;;;3.10;1.20;;;15.70;99.90;;;;;;6256225;22;20061;-95
2022/10/04 17:07:40;;;;;;;3.55;1.30;;;15.80;99.90;;;;;;6129899;23;20341;-95
2022/10/04 17:10:33;;;;;;;3.55;1.40;;;15.70;99.90;;;;;;6130030;23;20177;-95
2022/10/04 17:13:29;;;;;;;3.35;1.55;;;15.60;99.90;;;;;;6235246;22;20023;-93
2022/10/04 17:16:13;;;;;;;4.85;1.85;;;15.70;99.90;;;;;;6255581;22;20397;-95
2022/10/04 17:19:09;;;;;;;2.63;1.23;;;15.60;99.90;;;;;;6255372;22;20053;-92
2022/10/04 17:22:03;;;;;;;3.33;1.48;;;15.60;99.90;;;;;;6256015;22;20051;-95
2022/10/04 17:25:00;;;;;;;5.25;2.00;;;15.60;99.90;;;;;;6282130;22;20015;-95
2022/10/04 17:27:37;;;;;;;11.30;5.85;;;15.60;99.90;;;;;;6224694;22;20066;-95
2022/10/04 17:30:22;;;;;;;5.38;2.25;;;15.60;99.90;;;;;;6256105;22;20026;-94
2022/10/04 17:33:06;;;;;;;8.10;5.15;;;15.60;99.90;;;;;;6256114;22;20456;-95
2022/10/04 17:36:09;;;;;;;28.20;18.17;;;15.60;99.90;;;;;;6255877;22;20026;-95